XBRLQ XAMT-MMCU
Flight info
| Callsign | XBRLQ |
|---|---|
| Flight time | N/A |
| Altitude | 9500 |
| Route | DCT MMCU |
| Aircraft | C172/L-S/C |
Departure
| Time | N/A |
|---|---|
| Airport | XAMT |
Arrival
| Time | 2026-04-23 00:08 |
|---|---|
| Airport | General Roberto Fierro Villalobos International Airport (MMCU) |
| Time | Latitude | Longitude | Altitude | Speed | Heading |
|---|---|---|---|---|---|
| 2026-04-22 23:26 | 28.65586 | -106.89728 | 6530 ft | 0 kts | 270° |
| 2026-04-22 23:34 | 28.65586 | -106.89734 | 6530 ft | 8 kts | 268° |
| 2026-04-22 23:34 | 28.65585 | -106.89963 | 6529 ft | 47 kts | 270° |
| 2026-04-22 23:34 | 28.65583 | -106.90460 | 6538 ft | 74 kts | 270° |
| 2026-04-22 23:35 | 28.65594 | -106.91083 | 6621 ft | 81 kts | 272° |
| 2026-04-22 23:35 | 28.65609 | -106.91739 | 6760 ft | 82 kts | 271° |
| 2026-04-22 23:35 | 28.65620 | -106.92374 | 6896 ft | 82 kts | 272° |
| 2026-04-22 23:35 | 28.65656 | -106.93027 | 7043 ft | 80 kts | 266° |
| 2026-04-22 23:36 | 28.65342 | -106.93506 | 7202 ft | 80 kts | 204° |
| 2026-04-22 23:36 | 28.64765 | -106.93571 | 7309 ft | 88 kts | 183° |
| 2026-04-22 23:36 | 28.64158 | -106.93534 | 7478 ft | 88 kts | 180° |
| 2026-04-22 23:36 | 28.63653 | -106.93159 | 7600 ft | 97 kts | 118° |
| 2026-04-22 23:37 | 28.63566 | -106.92410 | 7790 ft | 97 kts | 95° |
| 2026-04-22 23:37 | 28.63523 | -106.91626 | 7941 ft | 99 kts | 90° |
| 2026-04-22 23:37 | 28.63531 | -106.90803 | 8026 ft | 108 kts | 89° |
| 2026-04-22 23:37 | 28.63543 | -106.89926 | 8138 ft | 113 kts | 89° |
| 2026-04-22 23:38 | 28.63559 | -106.89041 | 8254 ft | 113 kts | 89° |
| 2026-04-22 23:38 | 28.63574 | -106.88150 | 8379 ft | 112 kts | 88° |
| 2026-04-22 23:38 | 28.63595 | -106.87267 | 8503 ft | 111 kts | 88° |
| 2026-04-22 23:38 | 28.63618 | -106.86396 | 8625 ft | 108 kts | 88° |
| 2026-04-22 23:39 | 28.63641 | -106.85538 | 8747 ft | 109 kts | 88° |
| 2026-04-22 23:39 | 28.63666 | -106.84703 | 8869 ft | 104 kts | 87° |
| 2026-04-22 23:39 | 28.63698 | -106.83891 | 8991 ft | 104 kts | 86° |
| 2026-04-22 23:39 | 28.63731 | -106.83062 | 9117 ft | 106 kts | 87° |
| 2026-04-22 23:40 | 28.63760 | -106.82225 | 9239 ft | 105 kts | 88° |
| 2026-04-22 23:40 | 28.63788 | -106.81378 | 9377 ft | 108 kts | 88° |
| 2026-04-22 23:40 | 28.63809 | -106.80520 | 9483 ft | 106 kts | 89° |
| 2026-04-22 23:40 | 28.63817 | -106.79658 | 9503 ft | 112 kts | 89° |
| 2026-04-22 23:41 | 28.63838 | -106.78755 | 9514 ft | 118 kts | 88° |
| 2026-04-22 23:41 | 28.63862 | -106.77793 | 9517 ft | 124 kts | 88° |
| 2026-04-22 23:41 | 28.63889 | -106.76785 | 9515 ft | 129 kts | 88° |
| 2026-04-22 23:41 | 28.63927 | -106.75787 | 9599 ft | 121 kts | 90° |
| 2026-04-22 23:42 | 28.63886 | -106.74833 | 9650 ft | 125 kts | 93° |
| 2026-04-22 23:42 | 28.63841 | -106.73798 | 9578 ft | 132 kts | 92° |
| 2026-04-22 23:42 | 28.63799 | -106.72773 | 9510 ft | 128 kts | 93° |
| 2026-04-22 23:42 | 28.63755 | -106.71795 | 9503 ft | 122 kts | 93° |
| 2026-04-22 23:43 | 28.63713 | -106.70846 | 9496 ft | 117 kts | 93° |
| 2026-04-22 23:43 | 28.63674 | -106.69940 | 9495 ft | 111 kts | 93° |
| 2026-04-22 23:43 | 28.63640 | -106.69082 | 9494 ft | 109 kts | 93° |
| 2026-04-22 23:43 | 28.63686 | -106.68232 | 9524 ft | 105 kts | 82° |
| 2026-04-22 23:44 | 28.63777 | -106.67420 | 9565 ft | 101 kts | 82° |
| 2026-04-22 23:44 | 28.63857 | -106.66628 | 9607 ft | 101 kts | 83° |
| 2026-04-22 23:44 | 28.63936 | -106.65857 | 9643 ft | 94 kts | 83° |
| 2026-04-22 23:44 | 28.64008 | -106.65140 | 9682 ft | 91 kts | 83° |
| 2026-04-22 23:45 | 28.64085 | -106.64393 | 9717 ft | 101 kts | 83° |
| 2026-04-22 23:45 | 28.64173 | -106.63506 | 9619 ft | 122 kts | 83° |
| 2026-04-22 23:45 | 28.64274 | -106.62500 | 9532 ft | 131 kts | 83° |
| 2026-04-22 23:45 | 28.64619 | -106.61556 | 9501 ft | 132 kts | 59° |
| 2026-04-22 23:46 | 28.65266 | -106.60872 | 9345 ft | 136 kts | 20° |
| 2026-04-22 23:46 | 28.66124 | -106.60470 | 9354 ft | 133 kts | 19° |
| 2026-04-22 23:46 | 28.67030 | -106.60192 | 9251 ft | 136 kts | 2° |
| 2026-04-22 23:46 | 28.67961 | -106.60161 | 9258 ft | 132 kts | 9° |
| 2026-04-22 23:47 | 28.68749 | -106.59637 | 9276 ft | 133 kts | 52° |
| 2026-04-22 23:47 | 28.68992 | -106.58631 | 9286 ft | 131 kts | 83° |
| 2026-04-22 23:47 | 28.69079 | -106.57647 | 9474 ft | 120 kts | 84° |
| 2026-04-22 23:47 | 28.69166 | -106.56684 | 9497 ft | 124 kts | 83° |
| 2026-04-22 23:48 | 28.69257 | -106.55704 | 9501 ft | 127 kts | 84° |
| 2026-04-22 23:48 | 28.69349 | -106.54694 | 9506 ft | 128 kts | 83° |
| 2026-04-22 23:48 | 28.69441 | -106.53677 | 9505 ft | 130 kts | 84° |
| 2026-04-22 23:48 | 28.69535 | -106.52649 | 9510 ft | 130 kts | 84° |
| 2026-04-22 23:49 | 28.69628 | -106.51625 | 9509 ft | 131 kts | 84° |
| 2026-04-22 23:49 | 28.69722 | -106.50586 | 9512 ft | 131 kts | 84° |
| 2026-04-22 23:49 | 28.69816 | -106.49545 | 9507 ft | 132 kts | 84° |
| 2026-04-22 23:49 | 28.69908 | -106.48505 | 9509 ft | 132 kts | 84° |
| 2026-04-22 23:50 | 28.70000 | -106.47455 | 9511 ft | 134 kts | 84° |
| 2026-04-22 23:50 | 28.70094 | -106.46403 | 9509 ft | 136 kts | 84° |
| 2026-04-22 23:50 | 28.70191 | -106.45331 | 9505 ft | 134 kts | 84° |
| 2026-04-22 23:50 | 28.70287 | -106.44281 | 9508 ft | 133 kts | 83° |
| 2026-04-22 23:51 | 28.70389 | -106.43233 | 9509 ft | 133 kts | 83° |
| 2026-04-22 23:51 | 28.70490 | -106.42172 | 9513 ft | 135 kts | 83° |
| 2026-04-22 23:51 | 28.70589 | -106.41109 | 9508 ft | 136 kts | 84° |
| 2026-04-22 23:51 | 28.70684 | -106.40059 | 9504 ft | 129 kts | 84° |
| 2026-04-22 23:52 | 28.70774 | -106.39045 | 9506 ft | 129 kts | 83° |
| 2026-04-22 23:52 | 28.70836 | -106.38369 | 9499 ft | 129 kts | 84° |
| 2026-04-22 23:52 | 28.70927 | -106.37365 | 9498 ft | 126 kts | 83° |
| 2026-04-22 23:52 | 28.71018 | -106.36371 | 9494 ft | 126 kts | 83° |
| 2026-04-22 23:53 | 28.71110 | -106.35374 | 9494 ft | 127 kts | 83° |
| 2026-04-22 23:53 | 28.71202 | -106.34388 | 9496 ft | 125 kts | 83° |
| 2026-04-22 23:53 | 28.71293 | -106.33416 | 9493 ft | 121 kts | 83° |
| 2026-04-22 23:53 | 28.71381 | -106.32481 | 9500 ft | 118 kts | 83° |
| 2026-04-22 23:54 | 28.71468 | -106.31552 | 9496 ft | 120 kts | 83° |
| 2026-04-22 23:54 | 28.71554 | -106.30612 | 9500 ft | 119 kts | 83° |
| 2026-04-22 23:54 | 28.71643 | -106.29663 | 9499 ft | 121 kts | 84° |
| 2026-04-22 23:54 | 28.71732 | -106.28710 | 9498 ft | 121 kts | 84° |
| 2026-04-22 23:55 | 28.71845 | -106.27458 | 9497 ft | 119 kts | 84° |
| 2026-04-22 23:55 | 28.71863 | -106.26834 | 9486 ft | 120 kts | 96° |
| 2026-04-22 23:55 | 28.71720 | -106.25886 | 9436 ft | 122 kts | 101° |
| 2026-04-22 23:55 | 28.71567 | -106.24925 | 9391 ft | 124 kts | 101° |
| 2026-04-22 23:56 | 28.71412 | -106.23948 | 9342 ft | 126 kts | 100° |
| 2026-04-22 23:56 | 28.71256 | -106.22960 | 9295 ft | 127 kts | 101° |
| 2026-04-22 23:56 | 28.71103 | -106.21989 | 9216 ft | 127 kts | 101° |
| 2026-04-22 23:56 | 28.70944 | -106.20987 | 9091 ft | 129 kts | 101° |
| 2026-04-22 23:57 | 28.70783 | -106.19975 | 8970 ft | 130 kts | 101° |
| 2026-04-22 23:57 | 28.70620 | -106.18954 | 8849 ft | 131 kts | 101° |
| 2026-04-22 23:57 | 28.70456 | -106.17920 | 8721 ft | 133 kts | 101° |
| 2026-04-22 23:57 | 28.70291 | -106.16883 | 8547 ft | 136 kts | 101° |
| 2026-04-22 23:58 | 28.70121 | -106.15821 | 8351 ft | 135 kts | 101° |
| 2026-04-22 23:58 | 28.69954 | -106.14771 | 8148 ft | 134 kts | 101° |
| 2026-04-22 23:58 | 28.69790 | -106.13733 | 7947 ft | 132 kts | 101° |
| 2026-04-22 23:58 | 28.69625 | -106.12700 | 7746 ft | 132 kts | 101° |
| 2026-04-22 23:59 | 28.69389 | -106.11708 | 7527 ft | 132 kts | 114° |
| 2026-04-22 23:59 | 28.68947 | -106.10789 | 7342 ft | 131 kts | 124° |
| 2026-04-22 23:59 | 28.68426 | -106.09955 | 7205 ft | 128 kts | 128° |
| 2026-04-22 23:59 | 28.67889 | -106.09146 | 6965 ft | 127 kts | 129° |
| 2026-04-23 00:00 | 28.66908 | -106.07579 | 6516 ft | 120 kts | 126° |
| 2026-04-23 00:00 | 28.66430 | -106.06789 | 6256 ft | 120 kts | 124° |
| 2026-04-23 00:00 | 28.66012 | -106.05988 | 6042 ft | 115 kts | 122° |
| 2026-04-23 00:01 | 28.65574 | -106.05233 | 5780 ft | 113 kts | 127° |
| 2026-04-23 00:01 | 28.65214 | -106.04481 | 5607 ft | 108 kts | 111° |
| 2026-04-23 00:01 | 28.65198 | -106.03658 | 5513 ft | 101 kts | 68° |
| 2026-04-23 00:01 | 28.65545 | -106.02970 | 5400 ft | 100 kts | 53° |
| 2026-04-23 00:02 | 28.65973 | -106.02332 | 5356 ft | 102 kts | 51° |
| 2026-04-23 00:02 | 28.66396 | -106.01683 | 5342 ft | 103 kts | 52° |
| 2026-04-23 00:02 | 28.66809 | -106.01010 | 5339 ft | 104 kts | 60° |
| 2026-04-23 00:02 | 28.67113 | -106.00268 | 5332 ft | 104 kts | 58° |
| 2026-04-23 00:03 | 28.67603 | -105.99661 | 5324 ft | 105 kts | 29° |
| 2026-04-23 00:03 | 28.68288 | -105.99374 | 5330 ft | 104 kts | 12° |
| 2026-04-23 00:03 | 28.68993 | -105.99219 | 5325 ft | 104 kts | 6° |
| 2026-04-23 00:03 | 28.69700 | -105.99081 | 5326 ft | 103 kts | 6° |
| 2026-04-23 00:04 | 28.70402 | -105.98940 | 5360 ft | 101 kts | 7° |
| 2026-04-23 00:04 | 28.71101 | -105.98777 | 5327 ft | 103 kts | 9° |
| 2026-04-23 00:04 | 28.71815 | -105.98592 | 5260 ft | 107 kts | 8° |
| 2026-04-23 00:04 | 28.72537 | -105.98439 | 5281 ft | 104 kts | 7° |
| 2026-04-23 00:05 | 28.73248 | -105.98314 | 5283 ft | 104 kts | 6° |
| 2026-04-23 00:05 | 28.73963 | -105.98203 | 5304 ft | 103 kts | 4° |
| 2026-04-23 00:05 | 28.74628 | -105.97956 | 5299 ft | 99 kts | 40° |
| 2026-04-23 00:05 | 28.74848 | -105.97235 | 5140 ft | 99 kts | 99° |
| 2026-04-23 00:06 | 28.74735 | -105.96512 | 5098 ft | 92 kts | 101° |
| 2026-04-23 00:06 | 28.74422 | -105.95929 | 5041 ft | 86 kts | 163° |
| 2026-04-23 00:06 | 28.73809 | -105.95849 | 4877 ft | 92 kts | 186° |
| 2026-04-23 00:06 | 28.73183 | -105.95944 | 4738 ft | 91 kts | 194° |
| 2026-04-23 00:07 | 28.72565 | -105.96073 | 4624 ft | 88 kts | 192° |
| 2026-04-23 00:07 | 28.72012 | -105.96201 | 4484 ft | 75 kts | 192° |
| 2026-04-23 00:07 | 28.71481 | -105.96316 | 4428 ft | 77 kts | 191° |
| 2026-04-23 00:07 | 28.71033 | -105.96412 | 4420 ft | 54 kts | 191° |
| 2026-04-23 00:08 | 28.70713 | -105.96480 | 4428 ft | 41 kts | 190° |
| 2026-04-23 00:08 | 28.70495 | -105.96529 | 4434 ft | 19 kts | 199° |
| 2026-04-23 00:08 | 28.70442 | -105.96632 | 4434 ft | 15 kts | 259° |
| 2026-04-23 00:08 | 28.70403 | -105.96714 | 4435 ft | 11 kts | 192° |
| 2026-04-23 00:09 | 28.70346 | -105.96726 | 4436 ft | 6 kts | 192° |
| 2026-04-23 00:09 | 28.70304 | -105.96736 | 4438 ft | 7 kts | 192° |
| 2026-04-23 00:09 | 28.70237 | -105.96751 | 4439 ft | 12 kts | 193° |
| 2026-04-23 00:09 | 28.70147 | -105.96772 | 4441 ft | 12 kts | 206° |
| 2026-04-23 00:10 | 28.70179 | -105.96838 | 4441 ft | 16 kts | 9° |
| 2026-04-23 00:10 | 28.70189 | -105.96836 | 4441 ft | 0 kts | 11° |